createdAt,value
2018-07-20T00:01:33.560Z,101124.09
2018-07-20T00:04:02.067Z,101122.02
2018-07-20T00:06:31.017Z,101114.22
2018-07-20T00:08:59.819Z,101111.67
2018-07-20T00:11:28.314Z,101110.23
2018-07-20T00:13:56.988Z,101112.36
2018-07-20T00:16:25.788Z,101111.49
2018-07-20T00:18:54.694Z,101108.91
2018-07-20T00:21:23.338Z,101105.84
2018-07-20T00:23:51.942Z,101105.63
2018-07-20T00:26:21.124Z,101109.59
2018-07-20T00:28:49.735Z,101103.83
2018-07-20T00:31:18.192Z,101102.89
2018-07-20T00:33:47.203Z,101100.88
2018-07-20T00:36:15.786Z,101092.61
2018-07-20T00:38:44.325Z,101100.54
2018-07-20T00:41:13.003Z,101102.28
2018-07-20T00:43:41.474Z,101093.04
2018-07-20T00:46:09.941Z,101092.44
2018-07-20T00:48:38.583Z,101089.67
2018-07-20T00:51:07.304Z,101090.67
2018-07-20T00:53:35.763Z,101086.52
2018-07-20T00:56:04.352Z,101091.77
2018-07-20T00:58:32.858Z,101084.46
2018-07-20T01:01:01.621Z,101093.03
2018-07-20T01:03:30.200Z,101082.69
2018-07-20T01:05:58.766Z,101083.25
2018-07-20T01:08:27.333Z,101082.91
2018-07-20T01:10:56.057Z,101081.22
2018-07-20T01:13:24.547Z,101079.88
2018-07-20T01:15:53.001Z,101080.27
2018-07-20T01:18:21.689Z,101080.89
2018-07-20T01:20:50.286Z,101077.52
2018-07-20T01:23:18.747Z,101084.11
2018-07-20T01:25:47.635Z,101072.90
2018-07-20T01:28:16.759Z,101072.43
2018-07-20T01:30:45.249Z,101078.38
2018-07-20T01:33:13.733Z,101072.66
2018-07-20T01:35:42.576Z,101073.78
2018-07-20T01:38:10.754Z,101073.92
2018-07-20T01:40:39.268Z,101073.41
2018-07-20T01:43:08.255Z,101067.34
2018-07-20T01:45:36.775Z,101072.33
2018-07-20T01:48:05.243Z,101073.80
2018-07-20T01:50:33.998Z,101073.84
2018-07-20T01:53:02.495Z,101069.09
2018-07-20T01:55:30.994Z,101072.03
2018-07-20T01:57:59.936Z,101067.41
2018-07-20T02:00:28.404Z,101066.84
2018-07-20T02:02:56.914Z,101066.11
2018-07-20T02:05:25.613Z,101065.85
2018-07-20T02:07:54.082Z,101055.30
2018-07-20T02:10:22.559Z,101056.41
2018-07-20T02:12:51.331Z,101052.83
2018-07-20T02:15:19.829Z,101049.07
2018-07-20T02:17:48.286Z,101051.53
2018-07-20T02:20:17.040Z,101053.39
2018-07-20T02:22:45.773Z,101046.94
2018-07-20T02:25:14.229Z,101053.73
2018-07-20T02:27:42.718Z,101053.52
2018-07-20T02:30:11.621Z,101052.30
2018-07-20T02:32:40.118Z,101050.48
2018-07-20T02:35:08.571Z,101050.27
2018-07-20T02:37:37.369Z,101046.72
2018-07-20T02:40:06.224Z,101047.46
2018-07-20T02:42:34.712Z,101047.81
2018-07-20T02:45:03.410Z,101048.06
2018-07-20T02:47:31.891Z,101048.33
2018-07-20T02:50:00.345Z,101048.23
2018-07-20T02:52:28.988Z,101042.52
2018-07-20T02:54:57.570Z,101041.40
2018-07-20T02:57:26.045Z,101038.72
2018-07-20T02:59:54.521Z,101038.72
2018-07-20T03:02:23.513Z,101034.22
2018-07-20T03:04:54.759Z,101039.06
2018-07-20T03:07:23.556Z,101037.50
2018-07-20T03:09:52.044Z,101034.95
2018-07-20T03:12:20.624Z,101034.70
2018-07-20T03:14:49.218Z,101037.50
2018-07-20T03:17:17.701Z,101034.22
2018-07-20T03:19:46.183Z,101035.58
2018-07-20T03:25:07.518Z,101039.12
2018-07-20T03:27:36.358Z,101038.88
2018-07-20T03:30:04.942Z,101037.66
2018-07-20T03:32:33.549Z,101039.59
2018-07-20T03:35:02.243Z,101038.77
2018-07-20T03:37:30.729Z,101034.49
2018-07-20T03:39:59.212Z,101040.61
2018-07-20T03:42:27.730Z,101042.91
2018-07-20T03:44:56.210Z,101037.55
2018-07-20T03:47:24.658Z,101036.59
2018-07-20T03:49:53.121Z,101031.12
2018-07-20T03:52:21.594Z,101035.75
2018-07-20T03:54:50.321Z,101032.08
2018-07-20T03:57:18.811Z,101033.30
2018-07-20T03:59:47.257Z,101025.89
2018-07-20T04:02:16.206Z,101016.64
2018-07-20T04:04:44.903Z,101027.84
2018-07-20T04:07:13.346Z,101032.97
2018-07-20T04:09:42.905Z,101019.31
2018-07-20T04:12:11.400Z,101020.16
2018-07-20T04:14:39.881Z,101020.66
2018-07-20T04:17:08.734Z,101015.69
2018-07-20T04:19:37.222Z,101014.82
2018-07-20T04:22:06.434Z,101010.19
2018-07-20T04:24:35.339Z,101015.07
2018-07-20T04:27:03.818Z,101012.01
2018-07-20T04:29:32.311Z,101016.53
2018-07-20T04:32:00.987Z,101010.19
2018-07-20T04:34:29.450Z,101010.92
2018-07-20T04:36:57.941Z,101011.05
2018-07-20T04:39:26.636Z,101010.67
2018-07-20T04:41:55.102Z,101011.05
2018-07-20T04:44:25.442Z,101006.17
2018-07-20T04:46:54.187Z,101008.36
2018-07-20T04:49:23.696Z,101013.36
2018-07-20T04:51:52.241Z,101012.27
2018-07-20T04:54:21.200Z,101012.18
2018-07-20T04:56:49.724Z,101012.18
2018-07-20T04:59:18.322Z,101015.81
2018-07-20T05:01:46.939Z,101016.89
2018-07-20T05:04:15.438Z,101014.58
2018-07-20T05:06:44.127Z,101013.59
2018-07-20T05:09:12.909Z,101020.28
2018-07-20T05:11:41.394Z,101006.67
2018-07-20T05:14:10.833Z,101012.52
2018-07-20T05:16:39.483Z,101015.81
2018-07-20T05:19:07.999Z,101012.64
2018-07-20T05:21:36.461Z,101011.30
2018-07-20T05:24:05.160Z,101011.88
2018-07-20T05:26:33.637Z,101009.86
2018-07-20T05:29:02.126Z,101001.47
2018-07-20T05:31:30.647Z,101003.64
2018-07-20T05:33:59.288Z,101001.23
2018-07-20T05:36:27.805Z,101001.70
2018-07-20T05:38:56.421Z,101002.08
2018-07-20T05:41:24.885Z,101003.17
2018-07-20T05:43:53.416Z,100996.48
2018-07-20T05:46:23.958Z,100997.21
2018-07-20T05:48:52.541Z,100994.52
2018-07-20T05:51:21.011Z,101003.52
2018-07-20T05:53:50.171Z,101004.99
2018-07-20T05:56:18.858Z,101009.85
2018-07-20T05:58:47.363Z,101004.25
2018-07-20T06:01:16.229Z,101009.95
2018-07-20T06:03:44.707Z,101006.33
2018-07-20T06:06:13.249Z,100997.30
2018-07-20T06:08:42.264Z,101002.66
2018-07-20T06:11:10.725Z,101003.50
2018-07-20T06:13:40.066Z,101003.37
2018-07-20T06:16:08.733Z,100999.56
2018-07-20T06:18:37.206Z,100999.09
2018-07-20T06:21:06.299Z,100997.37
2018-07-20T06:23:35.263Z,100994.66
2018-07-20T06:26:03.833Z,100993.66
2018-07-20T06:28:32.313Z,100986.36
2018-07-20T06:31:01.138Z,100994.66
2018-07-20T06:33:29.652Z,100993.06
2018-07-20T06:35:58.249Z,100998.52
2018-07-20T06:38:26.733Z,101000.49
2018-07-20T06:40:55.219Z,101006.90
2018-07-20T06:43:24.283Z,101002.45
2018-07-20T06:45:52.803Z,101001.66
2018-07-20T06:48:21.238Z,101012.33
2018-07-20T06:50:50.028Z,101013.80
2018-07-20T06:53:18.525Z,101014.23
2018-07-20T06:55:47.043Z,101015.41
2018-07-20T06:58:15.691Z,101010.04
2018-07-20T07:00:44.158Z,101002.98
2018-07-20T07:03:12.618Z,101012.33
2018-07-20T07:05:41.415Z,101006.58
2018-07-20T07:08:09.920Z,101007.25
2018-07-20T07:10:38.402Z,101008.19
2018-07-20T07:13:07.480Z,101009.85
2018-07-20T07:15:35.997Z,101006.22
2018-07-20T07:18:04.565Z,100997.27
2018-07-20T07:20:33.314Z,100999.92
2018-07-20T07:23:01.790Z,101002.42
2018-07-20T07:25:30.411Z,101003.39
2018-07-20T07:27:59.331Z,101004.69
2018-07-20T07:30:28.536Z,101006.34
2018-07-20T07:32:57.022Z,101005.69
2018-07-20T07:35:25.643Z,101000.27
2018-07-20T07:37:54.122Z,101005.22
2018-07-20T07:40:22.599Z,100999.28
2018-07-20T07:42:58.995Z,100998.66
2018-07-20T07:45:27.426Z,101006.28
2018-07-20T07:47:55.924Z,100997.14
2018-07-20T07:50:24.536Z,100997.76
2018-07-20T07:52:53.052Z,100999.06
2018-07-20T07:55:21.546Z,100996.00
2018-07-20T07:57:50.192Z,100994.47
2018-07-20T08:00:18.661Z,100997.21
2018-07-20T08:02:47.585Z,100999.15
2018-07-20T08:05:16.350Z,100999.06
2018-07-20T08:07:44.809Z,100992.77
2018-07-20T08:10:13.325Z,100991.03
2018-07-20T08:12:42.209Z,100991.22
2018-07-20T08:15:10.685Z,100994.67
2018-07-20T08:17:39.260Z,100995.24
2018-07-20T08:20:08.717Z,100994.47
2018-07-20T08:22:37.222Z,100995.03
2018-07-20T08:25:05.718Z,100986.48
2018-07-20T08:27:34.413Z,100986.89
2018-07-20T08:30:02.896Z,100985.25
2018-07-20T08:32:31.914Z,100983.11
2018-07-20T08:35:00.864Z,100984.14
2018-07-20T08:37:29.343Z,100979.37
2018-07-20T08:39:57.808Z,100975.33
2018-07-20T08:42:26.578Z,100979.63
2018-07-20T08:44:55.090Z,100981.58
2018-07-20T08:47:23.586Z,100980.38
2018-07-20T08:49:52.580Z,100971.28
2018-07-20T08:52:21.072Z,100970.20
2018-07-20T08:54:49.537Z,100962.91
2018-07-20T08:57:19.246Z,100958.38
2018-07-20T08:59:47.960Z,100960.25
2018-07-20T09:02:16.463Z,100962.37
2018-07-20T09:04:45.296Z,100962.38
2018-07-20T09:07:13.747Z,100960.24
2018-07-20T09:09:42.806Z,100964.64
2018-07-20T09:12:11.296Z,100960.62
2018-07-20T09:14:39.779Z,100958.48
2018-07-20T09:17:08.264Z,100949.28
2018-07-20T09:19:37.013Z,100953.13
2018-07-20T09:22:05.630Z,100949.85
2018-07-20T09:24:34.621Z,100953.98
2018-07-20T09:27:03.369Z,100951.34
2018-07-20T09:29:31.824Z,100957.45
2018-07-20T09:32:00.333Z,100951.08
2018-07-20T09:34:29.128Z,100949.77
2018-07-20T09:36:57.620Z,100948.55
2018-07-20T09:39:26.306Z,100938.77
2018-07-20T09:41:59.032Z,100951.66
2018-07-20T09:44:27.867Z,100944.37
2018-07-20T09:46:56.233Z,100949.33
2018-07-20T09:49:24.850Z,100946.62
2018-07-20T09:51:53.366Z,100944.49
2018-07-20T09:54:21.851Z,100945.08
2018-07-20T09:56:50.578Z,100941.69
2018-07-20T09:59:19.040Z,100938.69
2018-07-20T10:01:47.515Z,100934.79
2018-07-20T10:04:16.104Z,100948.33
2018-07-20T10:06:44.639Z,100940.34
2018-07-20T10:09:13.639Z,100940.70
2018-07-20T10:11:42.425Z,100941.70
2018-07-20T10:14:11.042Z,100941.20
2018-07-20T10:16:39.529Z,100935.46
2018-07-20T10:19:08.199Z,100937.84
2018-07-20T10:21:36.970Z,100936.64
2018-07-20T10:24:05.499Z,100938.34
2018-07-20T10:26:33.973Z,100939.86
2018-07-20T10:29:02.773Z,100938.33
2018-07-20T10:31:31.253Z,100932.94
2018-07-20T10:33:59.772Z,100928.69
2018-07-20T10:36:28.625Z,100927.16
2018-07-20T10:38:57.357Z,100932.09
2018-07-20T10:41:25.886Z,100929.55
2018-07-20T10:43:54.390Z,100932.95
2018-07-20T10:46:23.556Z,100924.81
2018-07-20T10:48:52.050Z,100921.09
2018-07-20T10:51:20.540Z,100916.34
2018-07-20T10:53:49.628Z,100922.77
2018-07-20T10:56:18.111Z,100915.32
2018-07-20T10:58:46.606Z,100916.98
2018-07-20T11:01:15.290Z,100915.64
2018-07-20T11:03:43.803Z,100914.27
2018-07-20T11:06:12.796Z,100904.92
2018-07-20T11:08:41.631Z,100905.74
2018-07-20T11:11:10.653Z,100909.48
2018-07-20T11:13:39.126Z,100909.66
2018-07-20T11:16:07.981Z,100909.84
2018-07-20T11:18:36.793Z,100904.22
2018-07-20T11:21:05.314Z,100899.09
2018-07-20T11:23:33.795Z,100901.48
2018-07-20T11:26:02.734Z,100900.12
2018-07-20T11:28:31.185Z,100893.14
2018-07-20T11:30:59.656Z,100892.45
2018-07-20T11:33:28.203Z,100893.52
2018-07-20T11:35:56.683Z,100889.10
2018-07-20T11:38:25.280Z,100890.78
2018-07-20T11:40:54.025Z,100889.92
2018-07-20T11:43:22.567Z,100890.10
2018-07-20T11:45:51.051Z,100887.22
2018-07-20T11:48:19.738Z,100883.50
2018-07-20T11:50:48.283Z,100885.33
2018-07-20T11:53:16.953Z,100881.90
2018-07-20T11:55:45.423Z,100880.23
2018-07-20T11:58:13.894Z,100875.76
2018-07-20T12:00:42.385Z,100879.64
2018-07-20T12:03:10.850Z,100883.75
2018-07-20T12:05:39.308Z,100873.05
2018-07-20T12:08:08.065Z,100869.80
2018-07-20T12:10:36.562Z,100871.55
2018-07-20T12:13:05.114Z,100863.50
2018-07-20T12:15:33.801Z,100862.50
2018-07-20T12:18:02.264Z,100863.03
2018-07-20T12:20:30.719Z,100851.92
2018-07-20T12:22:59.313Z,100853.59
2018-07-20T12:25:27.787Z,100848.92
2018-07-20T12:27:56.506Z,100852.73
2018-07-20T12:30:24.970Z,100840.04
2018-07-20T12:32:53.425Z,100841.23
2018-07-20T12:35:21.922Z,100837.02
2018-07-20T12:37:50.381Z,100830.61
2018-07-20T12:40:18.560Z,100829.41
2018-07-20T12:42:47.585Z,100821.77
2018-07-20T12:45:16.041Z,100817.22
2018-07-20T12:47:44.495Z,100822.34
2018-07-20T12:50:13.203Z,100820.55
2018-07-20T12:52:42.144Z,100819.25
2018-07-20T12:55:10.653Z,100823.32
2018-07-20T12:57:39.144Z,100825.52
2018-07-20T13:00:08.063Z,100820.26
2018-07-20T13:02:36.554Z,100824.77
2018-07-20T13:05:05.921Z,100815.28
2018-07-20T13:07:34.556Z,100806.33
2018-07-20T13:10:03.138Z,100809.58
2018-07-20T13:12:32.161Z,100813.49
2018-07-20T13:15:00.638Z,100814.89
2018-07-20T13:17:29.455Z,100813.70
2018-07-20T13:19:58.172Z,100818.38
2018-07-20T13:22:26.628Z,100818.01
2018-07-20T13:24:55.114Z,100814.94
2018-07-20T13:27:24.044Z,100815.02
2018-07-20T13:29:52.518Z,100807.91
2018-07-20T13:32:21.004Z,100807.36
2018-07-20T13:34:49.626Z,100804.14
2018-07-20T13:37:18.114Z,100800.76
2018-07-20T13:39:46.809Z,100794.33
2018-07-20T13:42:15.528Z,100789.87
2018-07-20T13:44:44.181Z,100781.38
2018-07-20T13:47:12.659Z,100782.78
2018-07-20T13:49:41.167Z,100786.17
2018-07-20T13:52:09.684Z,100785.45
2018-07-20T13:54:38.165Z,100782.41
2018-07-20T13:57:07.154Z,100775.80
2018-07-20T13:59:35.617Z,100783.30
2018-07-20T14:02:04.096Z,100780.05
2018-07-20T14:04:32.882Z,100769.34
2018-07-20T14:07:01.401Z,100774.68
2018-07-20T14:09:29.961Z,100772.24
2018-07-20T14:11:58.837Z,100768.16
2018-07-20T14:14:27.357Z,100758.12
2018-07-20T14:16:55.843Z,100761.63
2018-07-20T14:19:31.032Z,100754.45
2018-07-20T14:21:59.699Z,100754.55
2018-07-20T14:24:28.202Z,100749.94
2018-07-20T14:26:56.879Z,100741.89
2018-07-20T14:29:25.320Z,100745.09
2018-07-20T14:31:53.864Z,100741.14
2018-07-20T14:34:22.648Z,100733.22
2018-07-20T14:36:51.151Z,100737.65
2018-07-20T14:39:19.654Z,100737.77
2018-07-20T14:41:49.008Z,100731.36
2018-07-20T14:44:17.519Z,100724.21
2018-07-20T14:46:46.286Z,100726.56
2018-07-20T14:49:14.992Z,100714.87
2018-07-20T14:51:43.655Z,100713.17
2018-07-20T14:54:12.132Z,100713.03
2018-07-20T14:56:40.619Z,100708.69
2018-07-20T14:59:09.300Z,100703.78
2018-07-20T15:01:37.819Z,100702.76
2018-07-20T15:04:06.667Z,100702.44
2018-07-20T15:06:35.397Z,100702.67
2018-07-20T15:09:07.162Z,100702.07
2018-07-20T15:11:37.956Z,100697.16
2018-07-20T15:14:07.053Z,100698.98
2018-07-20T15:16:36.119Z,100685.32
2018-07-20T15:19:05.263Z,100693.40
2018-07-20T15:21:34.434Z,100692.52
2018-07-20T15:24:03.631Z,100678.22
2018-07-20T15:26:33.306Z,100682.83
2018-07-20T15:29:02.363Z,100683.05
2018-07-20T15:31:31.488Z,100690.66
2018-07-20T15:34:01.123Z,100682.48
2018-07-20T15:36:30.235Z,100679.55
2018-07-20T15:38:59.307Z,100679.61
2018-07-20T15:41:28.623Z,100674.32
2018-07-20T15:43:58.158Z,100671.88
2018-07-20T15:46:27.305Z,100669.06
2018-07-20T15:48:56.527Z,100666.06
2018-07-20T15:51:55.461Z,100661.75
2018-07-20T15:53:55.001Z,100664.70
2018-07-20T15:56:24.192Z,100662.83
2018-07-20T15:58:53.256Z,100665.80
2018-07-20T16:01:22.310Z,100670.08
2018-07-20T16:03:51.922Z,100674.55
2018-07-20T16:06:21.006Z,100670.21
2018-07-20T16:08:50.242Z,100667.77
2018-07-20T16:11:19.510Z,100660.93
2018-07-20T16:13:48.795Z,100663.05
2018-07-20T16:16:17.909Z,100660.36
2018-07-20T16:18:47.128Z,100663.98
2018-07-20T16:21:16.357Z,100659.33
2018-07-20T16:23:45.411Z,100657.28
2018-07-20T16:26:14.508Z,100649.95
2018-07-20T16:28:43.972Z,100656.39
2018-07-20T16:31:13.019Z,100648.44
2018-07-20T16:33:42.095Z,100651.52
2018-07-20T16:36:11.359Z,100649.77
2018-07-20T16:38:40.401Z,100647.78
2018-07-20T16:41:09.487Z,100648.55
2018-07-20T16:43:38.961Z,100642.71
2018-07-20T16:46:08.436Z,100644.00
2018-07-20T16:48:37.492Z,100644.71
2018-07-20T16:51:06.774Z,100641.84
2018-07-20T16:53:35.851Z,100642.76
2018-07-20T16:56:04.951Z,100634.74
2018-07-20T16:58:34.161Z,100633.17
2018-07-20T17:01:03.274Z,100635.19
2018-07-20T17:03:32.444Z,100638.64
2018-07-20T17:06:01.747Z,100630.94
2018-07-20T17:08:30.856Z,100625.18
2018-07-20T17:11:00.240Z,100623.34
2018-07-20T17:13:29.320Z,100617.77
2018-07-20T17:15:58.370Z,100617.66
2018-07-20T17:18:27.952Z,100615.77
2018-07-20T17:20:57.055Z,100608.71
2018-07-20T17:23:26.246Z,100617.06
2018-07-20T17:25:55.776Z,100615.20
2018-07-20T17:28:24.840Z,100612.17
2018-07-20T17:30:53.906Z,100605.62
2018-07-20T17:33:23.140Z,100608.84
2018-07-20T17:35:52.524Z,100619.00
2018-07-20T17:38:21.586Z,100619.47
2018-07-20T17:40:50.688Z,100629.36
2018-07-20T17:43:19.894Z,100626.48
2018-07-20T17:45:49.035Z,100627.88
2018-07-20T17:48:18.110Z,100628.09
2018-07-20T17:50:47.223Z,100627.37
2018-07-20T17:53:16.363Z,100622.51
2018-07-20T17:55:45.908Z,100628.25
2018-07-20T17:58:14.970Z,100622.32
2018-07-20T18:00:44.062Z,100622.32
2018-07-20T18:03:13.407Z,100623.95
2018-07-20T18:05:42.487Z,100631.52
2018-07-20T18:08:11.787Z,100624.11
2018-07-20T18:10:41.431Z,100618.28
2018-07-20T18:13:10.563Z,100619.70
2018-07-20T18:15:39.818Z,100619.03
2018-07-20T18:18:08.899Z,100624.69
2018-07-20T18:20:38.051Z,100628.70
2018-07-20T18:23:07.295Z,100625.64
2018-07-20T18:25:36.374Z,100627.34
2018-07-20T18:28:05.658Z,100626.53
2018-07-20T18:30:34.855Z,100626.68
2018-07-20T18:33:03.982Z,100626.06
2018-07-20T18:35:33.280Z,100616.55
2018-07-20T18:38:02.351Z,100627.25
2018-07-20T18:40:31.473Z,100631.48
2018-07-20T18:43:00.722Z,100631.72
2018-07-20T18:45:29.973Z,100641.87
2018-07-20T18:47:59.048Z,100641.95
2018-07-20T18:50:28.454Z,100640.06
2018-07-20T18:52:57.543Z,100639.91
2018-07-20T18:55:26.644Z,100644.36
2018-07-20T18:57:55.826Z,100634.92
2018-07-20T19:00:24.880Z,100640.36
2018-07-20T19:02:54.150Z,100645.12
2018-07-20T19:05:23.398Z,100645.47
2018-07-20T19:07:52.291Z,100649.20
2018-07-20T19:10:21.380Z,100646.35
2018-07-20T19:12:50.521Z,100646.55
2018-07-20T19:15:19.749Z,100650.24
2018-07-20T19:17:48.804Z,100651.44
2018-07-20T19:20:17.904Z,100658.19
2018-07-20T19:22:47.524Z,100658.39
2018-07-20T19:25:16.614Z,100666.67
2018-07-20T19:27:45.686Z,100666.52
2018-07-20T19:30:15.003Z,100661.95
2018-07-20T19:32:44.676Z,100663.81
2018-07-20T19:35:13.872Z,100664.16
2018-07-20T19:37:42.945Z,100668.38
2018-07-20T19:40:12.924Z,100673.94
2018-07-20T19:42:44.488Z,100682.38
2018-07-20T19:45:14.386Z,100684.87
2018-07-20T19:47:43.812Z,100691.67
2018-07-20T19:50:12.923Z,100695.17
2018-07-20T19:52:42.195Z,100698.55
2018-07-20T19:55:11.289Z,100698.55
2018-07-20T19:57:40.566Z,100696.36
2018-07-20T20:00:10.554Z,100701.57
2018-07-20T20:02:39.885Z,100697.19
2018-07-20T20:05:09.040Z,100699.53
2018-07-20T20:07:38.823Z,100700.00
2018-07-20T20:10:08.513Z,100700.72
2018-07-20T20:12:38.170Z,100690.56
2018-07-20T20:15:08.121Z,100695.60
2018-07-20T20:17:37.207Z,100688.73
2018-07-20T20:20:10.105Z,100680.97
2018-07-20T20:22:39.182Z,100692.77
2018-07-20T20:25:08.526Z,100686.50
2018-07-20T20:27:37.808Z,100690.20
2018-07-20T20:30:07.033Z,100676.70
2018-07-20T20:32:36.936Z,100682.41
2018-07-20T20:35:06.186Z,100675.83
2018-07-20T20:37:35.384Z,100675.49
2018-07-20T20:40:05.053Z,100674.47
2018-07-20T20:42:34.128Z,100676.84
2018-07-20T20:45:03.439Z,100679.12
2018-07-20T20:47:32.538Z,100674.44
2018-07-20T20:50:01.582Z,100677.34
2018-07-20T20:52:31.563Z,100674.47
2018-07-20T20:55:01.077Z,100681.55
2018-07-20T20:57:30.245Z,100676.42
2018-07-20T20:59:59.446Z,100672.17
2018-07-20T21:02:28.673Z,100675.69
2018-07-20T21:04:57.777Z,100671.64
2018-07-20T21:07:26.964Z,100668.45
2018-07-20T21:09:57.065Z,100666.25
2018-07-20T21:12:26.182Z,100667.59
2018-07-20T21:14:55.395Z,100669.80
2018-07-20T21:17:24.469Z,100665.09
2018-07-20T21:19:53.629Z,100668.94
2018-07-20T21:22:22.942Z,100665.06
2018-07-20T21:24:52.091Z,100665.59
2018-07-20T21:27:21.759Z,100666.77
2018-07-20T21:29:51.353Z,100660.23
2018-07-20T21:32:20.428Z,100656.59
2018-07-20T21:34:49.520Z,100660.52
2018-07-20T21:37:19.632Z,100657.82
2018-07-20T21:39:49.139Z,100652.34
2018-07-20T21:42:18.256Z,100649.92
2018-07-20T21:44:47.555Z,100648.79
2018-07-20T21:47:16.840Z,100646.09
2018-07-20T21:49:46.494Z,100654.84
2018-07-20T21:52:15.955Z,100655.33
2018-07-20T21:54:45.622Z,100649.72
2018-07-20T21:57:14.798Z,100655.31
2018-07-20T21:59:56.447Z,100654.47
2018-07-20T22:02:40.878Z,100649.19
2018-07-20T22:05:27.135Z,100650.58
2018-07-20T22:08:13.900Z,100654.98
2018-07-20T22:10:58.641Z,100652.45
2018-07-20T22:16:29.784Z,100646.26
2018-07-20T22:19:21.446Z,100657.70
2018-07-20T22:22:05.176Z,100660.02
2018-07-20T22:24:51.018Z,100665.07
2018-07-20T22:27:35.118Z,100662.50
2018-07-20T22:30:24.796Z,100661.03
2018-07-20T22:33:05.267Z,100664.71
2018-07-20T22:35:48.209Z,100666.38
2018-07-20T22:38:36.296Z,100655.83
2018-07-20T22:41:20.063Z,100652.16
2018-07-20T22:44:04.161Z,100648.40
2018-07-20T22:46:49.186Z,100648.44
2018-07-20T22:49:44.740Z,100642.18
2018-07-20T22:52:39.189Z,100644.02
2018-07-20T22:55:22.994Z,100643.69
2018-07-20T22:58:11.711Z,100646.77
2018-07-20T23:00:57.638Z,100646.33
2018-07-20T23:06:22.903Z,100654.08
2018-07-20T23:09:10.295Z,100652.38
2018-07-20T23:11:51.456Z,100642.92
2018-07-20T23:14:37.339Z,100640.34
2018-07-20T23:17:25.063Z,100635.59
2018-07-20T23:20:06.787Z,100634.07
2018-07-20T23:22:47.349Z,100636.38
2018-07-20T23:28:22.990Z,100645.68
2018-07-20T23:31:08.432Z,100643.61
2018-07-20T23:33:53.173Z,100639.26
2018-07-20T23:36:42.472Z,100635.38
2018-07-20T23:39:30.502Z,100641.57
2018-07-20T23:42:20.280Z,100640.22
2018-07-20T23:44:55.358Z,100640.45
2018-07-20T23:47:43.063Z,100637.91
2018-07-20T23:50:24.968Z,100648.42
2018-07-20T23:53:17.129Z,100639.78
2018-07-20T23:56:01.934Z,100638.95
2018-07-20T23:58:52.817Z,100635.38
